Detall de PIREP

Printer-friendly versionPDF version

[2014/06/25 17:34:00]
Flight IATA:CT1004
Pilot Number:042
Company ICAO:CAT
Aircraft Type:F100/A
PAX:48
Aircraft Registration:PFJ
Departing Airport: LFMN
Destination Airport: LFMP
Alternate Airport:LEGE
Online: VATSIM
Route:TURIL UL127 FJR
Flight Level:F200
No Slew and time accel
No pause
Crash detect
Detect pilot in Cockpit between each 30 and 45 minutes
17:34 Zero fuel Weight: 72666 Lbs, Fuel Weight: 22658 Lbs
17:34 VATSIM:LFMN 250830Z 27008KT 250V310 9999 FEW050 BKN200 20/15 Q1007 NOSIG
17:34 VATSIM:LFMP 250800Z 29006KT 240V310 9999 SCT033 BKN066 20/16 Q1011 NOSIG
17:34 Parking Brakes off
17:38 Take-off
17:38 Take off Weight: 94992 Lbs
17:38 Wind: 274º @ 008 Knots Heading: 225º
17:38 POS N43º 39´ 27´´ E007º 12´ 42´´
17:38 Gear Up: 162 Knots
17:38 Flaps:2 at 162 Knots
17:38 Flaps:0 at 163 Knots
17:46 TOC
17:46 Fuel Weight: 21155 Lb
17:53 Wind:252º@028 Knots Heading: 268º Ground Speed: 399 Knots Altitude 19868 ft
18:03 TOD
18:03 Fuel Weight: 19493 Lb
18:08 Wind:308º@015 Knots Heading: 246º Ground Speed: 352 Knots Altitude 14005 ft
18:22 Flaps:1 at 211 Knots
18:23 Wind:279º@012 Knots Heading: 178º Ground Speed: 209 Knots Altitude 3051 ft
18:25 Flaps:2 at 182 Knots
18:26 Gear Down: 180 Knots
18:26 Flaps:3 at 180 Knots
18:29 TouchDown:Rate -539 ft/min Speed: 155 Knots
18:30 VATSIM:LFMP 250830Z 28008KT 9999 -RA BKN026 BKN063 20/16 Q1011 NOSIG
18:30 Land
18:30 Wind:279º@008 Knots
18:30 Heading: 323º
18:30 Flight Duration: 00:52
18:30 Landing Weight: 90694 Lbs
18:30 POS N42º 44´ 55´´ E002º 51´ 58´´
18:30 Parking brakes on
18:30 Block to Block Duration: 00:56
18:30 Final Fuel: 18013 Lbls
18:30 Spent Fuel: 4645 Lbls
18:30 Flight Length: 259 NM
18:30 TOD Land Length: 116 NM

Exportar CSV

Powered by Drupal - Modified by Danger4k